It's Sunday,
December 15th, 2019
User not logged in
[Run Race Header Image][Run Race logo]
  
Race webcasting is attempted by race directors and their support staff. Please remember that conditions under which they're working may make it difficult to post timely webcast updates... your interest and patience is appreciated!
Race Information
Race Name:Kettle Moraine Endurance Races 100/100k/50k/38 mile run run
Location:LaGrange
State:Wisconsin, United States
 button: button: Webcast Autoplay
Event Information
Name of Event:Kettle Moraine 100m
Distance:100 Miles
Started Date/Time:Saturday June 1st, 2019, 5:59:59.29 am
button: Assign Numbers  
Checkpoint:Bluff Road Outbound 1
Distance:7.6 Miles
Gun Start Time:Saturday June 1st, 2019 5:59:59.29 am
Calculate Chip Start Time:< not set >
Y or N... Calculate splits based upon participant chip start time?
Allow Early Chip Start Time:< not set >
Y or N... Allow participants a chip start time prior to gun start?
Pos Race
Number
NameAgeSexTimePace 
1169Jonathan Koscinski38M1:02:28.88:13.3Sat Jun 1st 7:02:28 am
2125DAVID HANSEN33M1:02:51.98:16.3Sat Jun 1st 7:02:51 am
3157Jason Keeler36M1:03:54.78:24.6Sat Jun 1st 7:03:53 am
4186James Luebke36M1:05:53.08:40.1Sat Jun 1st 7:05:52 am
5246Tom Rauen36M1:06:09.18:42.3Sat Jun 1st 7:06:08 am
6315Christine Westcott49F1:06:28.28:44.8Sat Jun 1st 7:06:27 am
7222Jon Noll34M1:06:33.38:45.4Sat Jun 1st 7:06:32 am
8260Barry Sackett50M1:06:45.88:47.1Sat Jun 1st 7:06:45 am
9103Steve Fredrickson39M1:06:59.38:48.9Sat Jun 1st 7:06:58 am
10134Lindsay Henkels39F1:07:03.28:49.4Sat Jun 1st 7:07:02 am
11209Kyle Moss28M1:07:09.08:50.1Sat Jun 1st 7:07:08 am
12350William Kidnew31M1:07:17.18:51.2Sat Jun 1st 7:07:16 am
13224Tristan Obluck34M1:08:16.48:59.0Sat Jun 1st 7:08:15 am
14139Michael Hinterberg40M1:08:18.68:59.3Sat Jun 1st 7:08:17 am
15322Lisa Wonneberg38F1:08:37.39:01.7Sat Jun 1st 7:08:36 am
1632Jamie Blumentritt31F1:09:06.69:05.6Sat Jun 1st 7:09:05 am
1777Relena Del Toro Ribbons32F1:09:40.29:10.0Sat Jun 1st 7:09:39 am
1844Stacey Buckley43F1:09:42.09:10.3Sat Jun 1st 7:09:41 am
19148Tony Jensen30M1:09:49.59:11.2Sat Jun 1st 7:09:48 am
2020Jeffrey Lenard53M1:09:56.29:12.1Sat Jun 1st 7:09:55 am
2160Jess Conboy38M1:10:38.99:17.8Sat Jun 1st 7:10:38 am
22313Brian Wean37M1:11:29.59:24.4Sat Jun 1st 7:11:28 am
23110Bibo Gao41F1:11:56.59:28.0Sat Jun 1st 7:11:55 am
2447Rachel Burke34F1:12:10.89:29.8Sat Jun 1st 7:12:10 am
25164Scott Klopfenstein48M1:12:58.09:36.1Sat Jun 1st 7:12:57 am
26122Peter Hancovsky22M1:12:59.69:36.3Sat Jun 1st 7:12:58 am
27266Mike Schmitt42M1:13:12.69:38.0Sat Jun 1st 7:13:11 am
28312Frayah Wasmund34F1:13:13.39:38.1Sat Jun 1st 7:13:12 am
29215Peeter Muursepp49M1:13:13.59:38.1Sat Jun 1st 7:13:12 am
30307Jeremy Verstraete42M1:13:16.09:38.4Sat Jun 1st 7:13:15 am
31135Lucas Henson34M1:14:33.89:48.7Sat Jun 1st 7:14:33 am
32280jonathan Spry36M1:14:37.69:49.2Sat Jun 1st 7:14:36 am
33298Ashley Truan35F1:14:46.49:50.3Sat Jun 1st 7:14:45 am
34244Erik Raivo35M1:15:08.69:53.2Sat Jun 1st 7:15:07 am
351William Abel46M1:15:21.39:54.9Sat Jun 1st 7:15:20 am
36299John Truelove51M1:15:49.89:58.7Sat Jun 1st 7:15:49 am
3722Shaun Barnes47M1:16:03.310:00.4Sat Jun 1st 7:16:02 am
3858Emily Collins40F1:16:14.310:01.9Sat Jun 1st 7:16:13 am
3927Brandon Becker42M1:16:15.010:02.0Sat Jun 1st 7:16:14 am
40309Mike Wallin35M1:16:29.310:03.9Sat Jun 1st 7:16:28 am
41176Tim Landewe45M1:17:18.510:10.3Sat Jun 1st 7:17:17 am
42173Jon Laack33M1:17:24.710:11.1Sat Jun 1st 7:17:23 am
43325Keith Wurm39M1:17:29.110:11.7Sat Jun 1st 7:17:28 am
4423Andrew Barr31M1:17:32.210:12.1Sat Jun 1st 7:17:31 am
45248Jessica Rettig40F1:17:34.210:12.4Sat Jun 1st 7:17:33 am
46138Jason Herrboldt40M1:17:44.010:13.7Sat Jun 1st 7:17:43 am
4776Sonya Decker52F1:17:52.110:14.8Sat Jun 1st 7:17:51 am
48217ERIC NELSON42M1:18:04.810:16.4Sat Jun 1st 7:18:04 am
4988Jen Even34F1:18:05.810:16.6Sat Jun 1st 7:18:05 am
50255Mike Rohner39M1:18:11.710:17.3Sat Jun 1st 7:18:10 am
5155Anthony Ciske41M1:18:22.710:18.8Sat Jun 1st 7:18:21 am
5285Chris Dwyer39M1:18:50.210:22.4Sat Jun 1st 7:18:49 am
53301David Ulbert61M1:18:57.410:23.3Sat Jun 1st 7:18:56 am
54201Abe Mendoza42M1:19:08.710:24.8Sat Jun 1st 7:19:08 am
55195Shannon McFarland43M1:19:11.410:25.2Sat Jun 1st 7:19:10 am
5645Mike Bull44M1:19:24.510:26.9Sat Jun 1st 7:19:23 am
57318Brad Whitson55M1:19:28.510:27.4Sat Jun 1st 7:19:27 am
58150Ray Johnson40M1:19:31.310:27.8Sat Jun 1st 7:19:30 am
5975Tammy Davis40F1:19:31.610:27.8Sat Jun 1st 7:19:30 am
60126Jon Hanson42M1:19:49.210:30.2Sat Jun 1st 7:19:48 am
61172Jason Kumlien49M1:19:59.810:31.6Sat Jun 1st 7:19:59 am
6238Curt brey39M1:20:02.510:31.9Sat Jun 1st 7:20:01 am
63214Steve Murray55M1:20:06.010:32.4Sat Jun 1st 7:20:05 am
64233Jake Peterson29M1:20:07.010:32.5Sat Jun 1st 7:20:06 am
6542Jason Brozek39M1:20:16.410:33.7Sat Jun 1st 7:20:15 am
66184Erika Lohn46F1:20:29.610:35.5Sat Jun 1st 7:20:28 am
67241Bryan Powers51M1:20:47.910:37.9Sat Jun 1st 7:20:47 am
68151ERROL JONES69M1:20:50.710:38.2Sat Jun 1st 7:20:49 am
6916Corey Baker49M1:21:04.210:40.0Sat Jun 1st 7:21:03 am
7050Miguel Carreon52M1:21:15.110:41.5Sat Jun 1st 7:21:14 am
71104Jennifer Freeman38F1:21:15.910:41.6Sat Jun 1st 7:21:15 am
72278Mark Smith40M1:21:26.910:43.0Sat Jun 1st 7:21:26 am
73293Barry Thrune43M1:21:29.810:43.4Sat Jun 1st 7:21:29 am
74226Adam Page35M1:21:46.110:45.5Sat Jun 1st 7:21:45 am
75182Jeff Leuwerke38M1:22:02.010:47.6Sat Jun 1st 7:22:01 am
76140Laura Hoban39F1:22:07.910:48.4Sat Jun 1st 7:22:07 am
7782Craig Duhn43M1:22:30.210:51.3Sat Jun 1st 7:22:29 am
7872Kristen Cwik41F1:22:52.910:54.3Sat Jun 1st 7:22:52 am
792Timothy Adamski30M1:22:57.310:54.9Sat Jun 1st 7:22:56 am
80141Russell House22M1:23:02.710:55.6Sat Jun 1st 7:23:02 am
8173Ronnie Daniel49M1:23:06.110:56.1Sat Jun 1st 7:23:05 am
8217Christopher Baldwin46M1:23:06.410:56.1Sat Jun 1st 7:23:05 am
8374Heather Davenport52F1:23:07.010:56.2Sat Jun 1st 7:23:06 am
84118Lanier Greenhaw48M1:23:08.610:56.4Sat Jun 1st 7:23:07 am
85117Matt Granstrom40M1:23:08.610:56.4Sat Jun 1st 7:23:07 am
86276David Smith38M1:23:09.310:56.5Sat Jun 1st 7:23:08 am
87127Gina Harcrow47F1:23:10.310:56.6Sat Jun 1st 7:23:09 am
88296Jaymz Touchstone51M1:23:12.510:56.9Sat Jun 1st 7:23:11 am
89181Lori Leonard57F1:23:29.010:59.1Sat Jun 1st 7:23:28 am
90277Malcolm Smith56M1:23:30.810:59.3Sat Jun 1st 7:23:30 am
9183John Duncombe42M1:23:36.111:00.0Sat Jun 1st 7:23:35 am
92317Tony Weyers49M1:23:57.011:02.8Sat Jun 1st 7:23:56 am
9319Laney Baris44F1:24:08.011:04.2Sat Jun 1st 7:24:07 am
94304Tim Vanderhoof51M1:24:23.011:06.2Sat Jun 1st 7:24:22 am
95303Brent Vanderhoof48M1:24:23.011:06.2Sat Jun 1st 7:24:22 am
96251Parker Rios52M1:24:26.211:06.6Sat Jun 1st 7:24:25 am
9771Bill Curry39M1:24:31.411:07.3Sat Jun 1st 7:24:30 am
98219Kurt Neumann44M1:25:15.311:13.1Sat Jun 1st 7:25:14 am
99153Brian Jubeck42M1:25:21.411:13.9Sat Jun 1st 7:25:20 am
10026Jon Beard64M1:25:33.611:15.5Sat Jun 1st 7:25:32 am
101223Faye Norby37F1:25:34.611:15.6Sat Jun 1st 7:25:33 am
10249Ausra Butkeviciute42F1:25:36.411:15.8Sat Jun 1st 7:25:35 am
10340Kurt Brown52M1:25:38.111:16.1Sat Jun 1st 7:25:37 am
10478Paul Deuchar43M1:25:39.111:16.2Sat Jun 1st 7:25:38 am
105196Candice McMackin46F1:25:43.711:16.8Sat Jun 1st 7:25:43 am
106113Jeff Goodmanson56M1:25:45.211:17.0Sat Jun 1st 7:25:44 am
1077Cheryl Anderson46F1:25:56.911:18.5Sat Jun 1st 7:25:56 am
108245Tony Rajkowski41M1:25:57.611:18.6Sat Jun 1st 7:25:56 am
109282Anthony Steeno39M1:25:59.411:18.9Sat Jun 1st 7:25:58 am
110203Scott Meyers51M1:26:03.011:19.3Sat Jun 1st 7:26:02 am
11181Roger Doyle44M1:26:07.511:19.9Sat Jun 1st 7:26:06 am
112256Moriel Rothman-Zecher29M1:26:11.911:20.5Sat Jun 1st 7:26:11 am
113261Chris Salamasick33M1:26:12.411:20.6Sat Jun 1st 7:26:11 am
11411Jon Archer35M1:26:18.311:21.4Sat Jun 1st 7:26:17 am
115143jeremy hurm42M1:26:20.211:21.6Sat Jun 1st 7:26:19 am
116218Mark Nelson50M1:26:27.311:22.5Sat Jun 1st 7:26:26 am
11795David Fischer56M1:26:28.111:22.6Sat Jun 1st 7:26:27 am
118171Predrag Krkic64M1:26:29.211:22.8Sat Jun 1st 7:26:28 am
119136Ilja Herdt35M1:26:32.311:23.2Sat Jun 1st 7:26:31 am
120179Matthew Lee40M1:27:17.811:29.2Sat Jun 1st 7:27:17 am
121225Charlie Ortiz39M1:27:22.511:29.8Sat Jun 1st 7:27:21 am
122202David Mentjes49M1:27:41.811:32.3Sat Jun 1st 7:27:41 am
123208William Morrissey37M1:27:45.811:32.9Sat Jun 1st 7:27:45 am
12452Brian Cavanaugh38M1:27:46.311:32.9Sat Jun 1st 7:27:45 am
12593Bryan Fillman47M1:27:46.411:32.9Sat Jun 1st 7:27:45 am
12651Steven Kuntz41M1:28:07.911:35.8Sat Jun 1st 7:28:07 am
127283Sharleen Stevens36F1:28:20.311:37.4Sat Jun 1st 7:28:19 am
128191Panagiotis MALLIARIS53M1:28:32.111:39.0Sat Jun 1st 7:28:31 am
129310Ronghui Wang51M1:28:39.811:40.0Sat Jun 1st 7:28:39 am
130106austin frion36M1:28:46.211:40.8Sat Jun 1st 7:28:45 am
131146Stacy Jantz27F1:28:52.911:41.7Sat Jun 1st 7:28:52 am
1329Jeremy Anderson45M1:28:57.811:42.3Sat Jun 1st 7:28:57 am
13386Stefan Elbel46M1:29:03.711:43.1Sat Jun 1st 7:29:02 am
134227John Papiernik34M1:29:04.411:43.2Sat Jun 1st 7:29:03 am
13587Mike Elsbury35M1:29:04.511:43.2Sat Jun 1st 7:29:03 am
136212Andrew Murphy35M1:29:05.011:43.3Sat Jun 1st 7:29:04 am
137326Salli Scott Young46F1:29:15.911:44.7Sat Jun 1st 7:29:15 am
138145Scott Irwin54M1:29:19.411:45.2Sat Jun 1st 7:29:18 am
13970Jason Crowe46M1:29:20.411:45.3Sat Jun 1st 7:29:19 am
140229Philip Parsons40M1:29:27.411:46.2Sat Jun 1st 7:29:26 am
141154David Just59M1:29:31.611:46.8Sat Jun 1st 7:29:30 am
14253Todd Chandler51M1:29:43.211:48.3Sat Jun 1st 7:29:42 am
143284Scott Stith37M1:29:44.411:48.5Sat Jun 1st 7:29:43 am
1446Alisha Alness32F1:29:55.611:49.9Sat Jun 1st 7:29:54 am
145272Dan-O Semsel52M1:30:20.611:53.2Sat Jun 1st 7:30:19 am
146264Nick Schaid34M1:30:29.911:54.5Sat Jun 1st 7:30:29 am
14710Scott Anderson37M1:30:31.311:54.6Sat Jun 1st 7:30:30 am
148239Matthew Poore38M1:30:31.711:54.7Sat Jun 1st 7:30:31 am
149329Tammy Zyduck54F1:30:35.411:55.2Sat Jun 1st 7:30:34 am
15013Todd Arnold39M1:30:45.811:56.6Sat Jun 1st 7:30:45 am
151314Tim Wegner53M1:30:57.911:58.2Sat Jun 1st 7:30:57 am
152178Jeff laughead42M1:31:02.411:58.7Sat Jun 1st 7:31:01 am
153250Michael Riordan35M1:31:04.311:59.0Sat Jun 1st 7:31:03 am
154128Jaime Hardgrove39F1:31:05.711:59.2Sat Jun 1st 7:31:04 am
155237Richard Plezia60M1:31:06.311:59.2Sat Jun 1st 7:31:05 am
15615James Baetz41M1:31:08.611:59.6Sat Jun 1st 7:31:07 am
157230Jason Patera43M1:31:21.412:01.2Sat Jun 1st 7:31:20 am
158213Morgan Murphy42M1:31:24.612:01.7Sat Jun 1st 7:31:23 am
15943Becky Brudwick52F1:31:27.812:02.1Sat Jun 1st 7:31:27 am
1603Paul Ahearn47M1:31:28.212:02.1Sat Jun 1st 7:31:27 am
161288Paul Swindle39M1:31:29.712:02.3Sat Jun 1st 7:31:29 am
16261Hannah Conway31F1:31:39.612:03.6Sat Jun 1st 7:31:38 am
163259Daryl Saari56M1:31:47.812:04.7Sat Jun 1st 7:31:47 am
164174Joshua Lacey34M1:32:09.912:07.6Sat Jun 1st 7:32:09 am
165286Stephen Strauss64M1:32:12.612:08.0Sat Jun 1st 7:32:11 am
16667Gary Craig31M1:32:14.412:08.2Sat Jun 1st 7:32:13 am
16768Dan Crouse42M1:32:15.812:08.4Sat Jun 1st 7:32:15 am
168149Nathan Johnson36M1:32:15.812:08.4Sat Jun 1st 7:32:15 am
169265Dustin Schmidt33M1:32:27.012:09.9Sat Jun 1st 7:32:26 am
170243Meghan Prohaska30F1:32:37.912:11.3Sat Jun 1st 7:32:37 am
171228Michael Parker34M1:32:41.212:11.7Sat Jun 1st 7:32:40 am
172270Liz Schumacher37F1:32:53.812:13.4Sat Jun 1st 7:32:53 am
173292Paul Thomson45M1:32:54.612:13.5Sat Jun 1st 7:32:53 am
17428Tim Belleau53M1:32:55.112:13.6Sat Jun 1st 7:32:54 am
17569Jamie Crouse39F1:32:56.112:13.7Sat Jun 1st 7:32:55 am
17690Bill Fairfield63M1:33:06.412:15.0Sat Jun 1st 7:33:05 am
1775Richard Albanese46M1:33:07.412:15.2Sat Jun 1st 7:33:06 am
178112Matt Goff32M1:33:09.012:15.4Sat Jun 1st 7:33:08 am
179316Trent Wester34M1:33:11.012:15.7Sat Jun 1st 7:33:10 am
180108Carl Galdine46M1:33:13.012:15.9Sat Jun 1st 7:33:12 am
181323Karen Wray54F1:33:13.512:16.0Sat Jun 1st 7:33:12 am
182144stephanie hurtado38F1:33:15.712:16.3Sat Jun 1st 7:33:14 am
183123Geoff Hanley43M1:33:16.912:16.4Sat Jun 1st 7:33:16 am
184130Jason Hastings47M1:33:20.712:16.9Sat Jun 1st 7:33:19 am
185119Andy Hahn35M1:33:24.312:17.4Sat Jun 1st 7:33:23 am
186170Randy Kreill56M1:33:26.212:17.7Sat Jun 1st 7:33:25 am
187267Andy Schmitz41M1:33:28.112:17.9Sat Jun 1st 7:33:27 am
188319Kim Willison49F1:33:32.212:18.5Sat Jun 1st 7:33:31 am
189269Ann Scholl49F1:33:33.612:18.6Sat Jun 1st 7:33:32 am
19097Tara Flesch40F1:33:34.212:18.7Sat Jun 1st 7:33:33 am
19146Lucy Burke44F1:33:36.112:19.0Sat Jun 1st 7:33:35 am
192137Jen Herdzina31F1:33:36.912:19.1Sat Jun 1st 7:33:36 am
193238Daria Podejko46F1:33:40.412:19.5Sat Jun 1st 7:33:39 am
194289Christopher Tebeau48M1:33:42.212:19.8Sat Jun 1st 7:33:41 am
195156brandon karl43M1:33:47.012:20.4Sat Jun 1st 7:33:46 am
196204Jonathan Mireles35M1:33:48.812:20.6Sat Jun 1st 7:33:48 am
19796Jeremy Fischer42M1:33:50.012:20.8Sat Jun 1st 7:33:49 am
19835Hope Bollig39F1:33:53.112:21.2Sat Jun 1st 7:33:52 am
199254arturo Rodriguez42M1:33:55.112:21.5Sat Jun 1st 7:33:54 am
200274Paul Shimondle67M1:33:59.312:22.0Sat Jun 1st 7:33:58 am
201152Jimmy Jones40M1:34:01.312:22.3Sat Jun 1st 7:34:00 am
202193Gregory Marshall29M1:34:04.612:22.7Sat Jun 1st 7:34:03 am
203194Evan McDoniels37M1:34:05.312:22.8Sat Jun 1st 7:34:04 am
204291Jennifer Thoennes37F1:34:09.712:23.4Sat Jun 1st 7:34:08 am
205206Matt Monroe47M1:34:16.912:24.3Sat Jun 1st 7:34:16 am
20691Troy Figgins49M1:34:19.612:24.7Sat Jun 1st 7:34:18 am
207147Christian Jensen41M1:34:26.012:25.5Sat Jun 1st 7:34:25 am
20829Nicole Bernardin39F1:34:31.112:26.2Sat Jun 1st 7:34:30 am
20918Angela Barbera58F1:34:32.512:26.4Sat Jun 1st 7:34:31 am
210183Nile Limbach25M1:34:47.112:28.3Sat Jun 1st 7:34:46 am
211100Sara Foster43F1:34:50.812:28.8Sat Jun 1st 7:34:50 am
21263Ryan Cooper43M1:34:56.312:29.5Sat Jun 1st 7:34:55 am
213102Douglas Franklin38M1:34:59.412:29.9Sat Jun 1st 7:34:58 am
214142Laura Hufschmidt38F1:35:00.112:30.0Sat Jun 1st 7:34:59 am
215281Josh Stebbins32M1:35:01.612:30.2Sat Jun 1st 7:35:00 am
21656Ryan Clayton35M1:35:03.012:30.4Sat Jun 1st 7:35:02 am
217252Mary Rittgers38F1:35:03.512:30.5Sat Jun 1st 7:35:02 am
218279Philip Spicer28M1:35:13.012:31.7Sat Jun 1st 7:35:12 am
21992David Files44M1:35:13.312:31.7Sat Jun 1st 7:35:12 am
220247Barry Reece49M1:35:15.012:32.0Sat Jun 1st 7:35:14 am
221273Shawn Severson46F1:35:25.712:33.4Sat Jun 1st 7:35:25 am
222198COLE MCNABB31M1:35:30.012:33.9Sat Jun 1st 7:35:29 am
223111Megan Gibson39F1:35:48.512:36.4Sat Jun 1st 7:35:47 am
224268Trudi Schoening40F1:35:54.012:37.1Sat Jun 1st 7:35:53 am
225160Michael Kennedy36M1:35:59.112:37.8Sat Jun 1st 7:35:58 am
226159Mandi Kennedy36F1:35:59.212:37.8Sat Jun 1st 7:35:58 am
22721Michael Barnaby36M1:36:02.612:38.2Sat Jun 1st 7:36:01 am
228258Ritzy Running23F1:36:03.712:38.4Sat Jun 1st 7:36:02 am
229200Ryan Menard45M1:36:08.412:39.0Sat Jun 1st 7:36:07 am
230210Jen Mullen45F1:36:09.012:39.1Sat Jun 1st 7:36:08 am
231162Leopold Kesseler21M1:36:12.412:39.5Sat Jun 1st 7:36:11 am
23264Daniel Cordova40M1:36:12.712:39.6Sat Jun 1st 7:36:11 am
233131Shannon Haus48M1:36:23.712:41.0Sat Jun 1st 7:36:23 am
234116Joe Gow56M1:36:40.312:43.2Sat Jun 1st 7:36:39 am
235167nathan koehn40M1:36:54.012:45.0Sat Jun 1st 7:36:53 am
236115Kelli Gorski39F1:36:55.212:45.2Sat Jun 1st 7:36:54 am
2374Sevil Aksoy36F1:36:56.212:45.3Sat Jun 1st 7:36:55 am
238295Joel Toews41M1:37:36.912:50.7Sat Jun 1st 7:37:36 am
239235Josh Phillips38M1:37:39.312:51.0Sat Jun 1st 7:37:38 am
240305Nikki Vapensky Marvel49F1:37:42.912:51.4Sat Jun 1st 7:37:42 am
241249Kimmy Riley58F1:38:01.412:53.9Sat Jun 1st 7:38:00 am
242107Jeni Funk-Miller50F1:38:04.012:54.2Sat Jun 1st 7:38:03 am
243263Geni Scalio48F1:38:04.212:54.2Sat Jun 1st 7:38:03 am
244275Jason Shrontz39M1:38:05.212:54.4Sat Jun 1st 7:38:04 am
245311Ryan Wanless41M1:38:08.012:54.7Sat Jun 1st 7:38:07 am
246192Nick Mariotti40M1:38:08.012:54.7Sat Jun 1st 7:38:07 am
247294John Tiwet52M1:38:25.312:57.0Sat Jun 1st 7:38:24 am
248308Erica Wagner32F1:38:26.512:57.2Sat Jun 1st 7:38:25 am
249271Tyler sears31M1:38:29.112:57.5Sat Jun 1st 7:38:28 am
250242Noah Praetz42M1:38:39.012:58.8Sat Jun 1st 7:38:38 am
251207Erik Morrell42M1:39:12.313:03.2Sat Jun 1st 7:39:11 am
252189Jennifer Majewski35F1:39:32.613:05.9Sat Jun 1st 7:39:31 am
253211Peter Mulligan53M1:39:39.813:06.8Sat Jun 1st 7:39:39 am
25462Jim Cooper50M1:39:40.513:06.9Sat Jun 1st 7:39:39 am
255240REGAN POURCHOT59M1:39:45.513:07.6Sat Jun 1st 7:39:44 am
256165Leigh Knaus38F1:39:55.713:08.9Sat Jun 1st 7:39:54 am
257166Kendra Kneer38F1:39:55.913:08.9Sat Jun 1st 7:39:55 am
25899Ron Foster52M1:40:27.013:13.0Sat Jun 1st 7:40:26 am
259161Mike Kenney41M1:40:43.613:15.2Sat Jun 1st 7:40:42 am
260253Tara Roberts39F1:40:55.213:16.7Sat Jun 1st 7:40:54 am
26159Jennell Colwell40F1:40:55.613:16.8Sat Jun 1st 7:40:54 am
262306Edna Jackeline Vazquez Lung37F1:41:09.213:18.6Sat Jun 1st 7:41:08 am
263187Jeffery Lung40M1:41:09.813:18.7Sat Jun 1st 7:41:09 am
264129Josh Harris33M1:41:12.413:19.0Sat Jun 1st 7:41:11 am
265221kimberly nickel54F1:41:20.313:20.0Sat Jun 1st 7:41:19 am
266262Kevin Sas35M1:41:23.913:20.5Sat Jun 1st 7:41:23 am
26737Ryan Borucki41M1:41:24.013:20.5Sat Jun 1st 7:41:23 am
268168Irene Kok48F1:41:28.313:21.1Sat Jun 1st 7:41:27 am
269290Josh TenBrink38M1:41:46.713:23.5Sat Jun 1st 7:41:45 am
27034Irina Boggie-Miloserdova59F1:42:08.813:26.4Sat Jun 1st 7:42:08 am
271177Brian Landstrom67M1:42:09.013:26.4Sat Jun 1st 7:42:08 am
27224Christian Barry51M1:42:32.313:29.5Sat Jun 1st 7:42:31 am
2738Jay Anderson46M1:42:34.413:29.8Sat Jun 1st 7:42:33 am
274180Aurora LeMay31F1:42:36.113:30.0Sat Jun 1st 7:42:35 am
27512Anjanette Arnold43F1:43:25.613:36.5Sat Jun 1st 7:43:24 am
276321torrey wilson28F1:43:31.313:37.3Sat Jun 1st 7:43:30 am
27748Susan Bush51F1:44:12.613:42.7Sat Jun 1st 7:44:11 am
27865Carleen Coulter52F1:44:13.313:42.8Sat Jun 1st 7:44:12 am
279320Dennis wilson61M1:44:29.613:45.0Sat Jun 1st 7:44:28 am
280190Elizabeth Male28F1:45:28.313:52.7Sat Jun 1st 7:45:27 am
281175Traci Lambert-Cwerenz58F1:45:35.713:53.6Sat Jun 1st 7:45:34 am
28280John Doyle58M1:45:39.113:54.1Sat Jun 1st 7:45:38 am
283216Mack Naber35M1:45:59.913:56.8Sat Jun 1st 7:45:59 am
284197todd mcmillion54M1:46:04.613:57.4Sat Jun 1st 7:46:03 am
285285Arno Stoffel50M1:46:16.813:59.0Sat Jun 1st 7:46:16 am
28639Linda Britz49F1:46:48.814:03.3Sat Jun 1st 7:46:48 am
287133jon hendren57M1:47:04.314:05.3Sat Jun 1st 7:47:03 am
288114Patrick Gorman60M1:47:27.814:08.4Sat Jun 1st 7:47:27 am
289205Andrew Mitchel55M1:47:49.614:11.3Sat Jun 1st 7:47:48 am
290121Becca Hamm McMillan30F1:48:10.314:14.0Sat Jun 1st 7:48:09 am
291257Jeffrey Ruiz53M1:48:31.414:16.8Sat Jun 1st 7:48:30 am
292324Kenny Wunder42M1:48:52.514:19.5Sat Jun 1st 7:48:51 am
29366Ezra Coutre30M1:48:52.614:19.5Sat Jun 1st 7:48:51 am
294155Walter Kapellen41M1:49:16.514:22.7Sat Jun 1st 7:49:15 am
295101Jenny Fox34F1:52:59.214:52.0Sat Jun 1st 7:52:58 am
296327Beiyi Zheng55F1:53:01.414:52.3Sat Jun 1st 7:53:00 am
297185Radek Lopusnik45M1:53:13.514:53.9Sat Jun 1st 7:53:12 am
298158Evie Kellogg39F1:56:53.615:22.8Sat Jun 1st 7:56:52 am
299188Janette Maas60F2:07:46.616:48.8Sat Jun 1st 8:07:45 am

Event Information
Name of Event:Kettle Moraine 100k
Distance:100 Kilometers
Started Date/Time:Saturday June 1st, 2019, 5:59:59.29 am
button: Assign Numbers 

Event Information
Name of Event:Kettle Team Relay
Distance:100 Miles
Started Date/Time:Saturday June 1st, 2019, 5:59:59.29 am
button: Assign Numbers 

Event Information
Name of Event:Kettle Moraine 50k
Distance:50 Kilometers
Started Date/Time:Saturday June 1st, 2019, 1:00:00.20 pm
button: Assign Numbers 

Event Information
Name of Event:Kettle 38 mile Fun Run
Distance:38 Miles
Scheduled Date/Time:Saturday June 1, 2019, 5:30 pm
button: Assign Numbers 
2004-2019 : All rights reserved
Terms and Conditions